createdAt,value
2018-09-02T00:00:39.613Z,13.40
2018-09-02T00:03:08.249Z,13.40
2018-09-02T00:05:36.903Z,13.30
2018-09-02T00:08:05.519Z,13.30
2018-09-02T00:10:34.214Z,13.30
2018-09-02T00:13:02.891Z,13.30
2018-09-02T00:15:31.626Z,13.20
2018-09-02T00:18:00.361Z,13.20
2018-09-02T00:20:29.055Z,13.20
2018-09-02T00:22:57.656Z,13.10
2018-09-02T00:25:26.281Z,13.10
2018-09-02T00:27:54.962Z,13.10
2018-09-02T00:30:23.708Z,13.10
2018-09-02T00:32:52.429Z,13.00
2018-09-02T00:35:21.109Z,13.00
2018-09-02T00:37:49.825Z,12.90
2018-09-02T00:40:18.500Z,13.00
2018-09-02T00:42:47.136Z,13.00
2018-09-02T00:45:15.813Z,13.00
2018-09-02T00:47:44.456Z,13.00
2018-09-02T00:50:13.088Z,13.00
2018-09-02T00:52:41.821Z,13.00
2018-09-02T00:55:17.072Z,12.90
2018-09-02T00:57:45.770Z,12.90
2018-09-02T01:00:14.484Z,12.90
2018-09-02T01:02:43.159Z,12.90
2018-09-02T01:05:11.854Z,12.80
2018-09-02T01:07:40.549Z,12.80
2018-09-02T01:10:09.225Z,12.80
2018-09-02T01:12:38.141Z,12.70
2018-09-02T01:15:07.199Z,12.70
2018-09-02T01:17:35.811Z,12.70
2018-09-02T01:20:04.568Z,12.70
2018-09-02T01:22:33.244Z,12.60
2018-09-02T01:25:01.901Z,12.60
2018-09-02T01:27:30.661Z,12.50
2018-09-02T01:29:59.370Z,12.50
2018-09-02T01:32:28.024Z,12.40
2018-09-02T01:34:56.680Z,12.50
2018-09-02T01:37:25.335Z,12.40
2018-09-02T01:39:54.070Z,12.40
2018-09-02T01:42:22.746Z,12.30
2018-09-02T01:44:51.411Z,12.30
2018-09-02T01:47:20.056Z,12.20
2018-09-02T01:49:48.772Z,12.10
2018-09-02T01:52:17.428Z,12.20
2018-09-02T01:54:46.062Z,12.10
2018-09-02T01:57:14.763Z,12.10
2018-09-02T01:59:43.448Z,12.10
2018-09-02T02:02:12.149Z,12.00
2018-09-02T02:04:42.303Z,12.00
2018-09-02T02:07:12.600Z,12.00
2018-09-02T02:09:41.637Z,11.90
2018-09-02T02:12:10.275Z,11.90
2018-09-02T02:14:38.946Z,11.90
2018-09-02T02:17:07.601Z,11.80
2018-09-02T02:19:36.297Z,11.70
2018-09-02T02:22:04.971Z,11.70
2018-09-02T02:24:33.627Z,11.70
2018-09-02T02:27:02.355Z,11.70
2018-09-02T02:29:31.038Z,11.60
2018-09-02T02:31:59.693Z,11.60
2018-09-02T02:34:28.328Z,11.60
2018-09-02T02:36:57.023Z,11.60
2018-09-02T02:39:25.723Z,11.60
2018-09-02T02:41:54.355Z,11.50
2018-09-02T02:44:23.132Z,11.40
2018-09-02T02:46:51.740Z,11.20
2018-09-02T02:49:20.402Z,11.30
2018-09-02T02:51:49.097Z,11.20
2018-09-02T02:54:17.675Z,11.20
2018-09-02T02:56:46.337Z,11.20
2018-09-02T02:59:15.021Z,11.20
2018-09-02T03:01:43.678Z,11.20
2018-09-02T03:04:12.373Z,11.20
2018-09-02T03:06:41.008Z,11.10
2018-09-02T03:09:10.868Z,11.10
2018-09-02T03:11:39.548Z,11.00
2018-09-02T03:14:08.934Z,10.90
2018-09-02T03:16:37.662Z,10.90
2018-09-02T03:19:06.645Z,10.80
2018-09-02T03:21:35.300Z,10.90
2018-09-02T03:24:04.096Z,10.80
2018-09-02T03:26:32.851Z,10.80
2018-09-02T03:29:01.507Z,10.80
2018-09-02T03:31:30.232Z,10.90
2018-09-02T03:33:58.917Z,10.80
2018-09-02T03:36:27.593Z,10.80
2018-09-02T03:38:56.248Z,10.80
2018-09-02T03:41:25.143Z,10.90
2018-09-02T03:43:53.820Z,10.70
2018-09-02T03:46:22.514Z,10.60
2018-09-02T03:48:51.229Z,10.60
2018-09-02T03:51:19.903Z,10.60
2018-09-02T03:53:48.560Z,10.70
2018-09-02T03:56:17.316Z,10.70
2018-09-02T03:58:46.090Z,10.60
2018-09-02T04:01:14.746Z,10.60
2018-09-02T04:03:43.380Z,10.60
2018-09-02T04:06:12.012Z,10.60
2018-09-02T04:08:40.691Z,10.60
2018-09-02T04:11:09.505Z,10.60
2018-09-02T04:13:38.210Z,10.70
2018-09-02T04:16:06.997Z,10.70
2018-09-02T04:18:35.695Z,10.70
2018-09-02T04:21:04.449Z,10.70
2018-09-02T04:23:33.063Z,10.70
2018-09-02T04:26:01.698Z,10.70
2018-09-02T04:28:30.341Z,10.80
2018-09-02T04:30:59.009Z,10.70
2018-09-02T04:33:29.814Z,10.70
2018-09-02T04:36:03.916Z,10.70
2018-09-02T04:38:39.990Z,10.70
2018-09-02T04:44:31.015Z,10.80
2018-09-02T04:47:02.715Z,10.80
2018-09-02T04:49:33.432Z,10.70
2018-09-02T04:52:02.610Z,10.70
2018-09-02T04:54:31.830Z,10.70
2018-09-02T04:57:00.890Z,10.70
2018-09-02T04:59:29.593Z,10.70
2018-09-02T05:01:58.294Z,10.80
2018-09-02T05:04:27.020Z,10.80
2018-09-02T05:06:55.616Z,10.90
2018-09-02T05:09:24.191Z,11.00
2018-09-02T05:11:52.866Z,11.00
2018-09-02T05:14:21.377Z,11.20
2018-09-02T05:16:50.076Z,11.30
2018-09-02T05:19:18.737Z,11.40
2018-09-02T05:21:47.506Z,11.40
2018-09-02T05:24:16.022Z,11.60
2018-09-02T05:26:44.956Z,11.70
2018-09-02T05:29:13.671Z,11.80
2018-09-02T05:31:42.357Z,12.00
2018-09-02T05:34:11.017Z,12.10
2018-09-02T05:36:39.535Z,12.20
2018-09-02T05:39:09.821Z,12.30
2018-09-02T05:41:38.686Z,12.50
2018-09-02T05:44:07.345Z,12.50
2018-09-02T05:46:35.936Z,12.60
2018-09-02T05:49:04.631Z,12.80
2018-09-02T05:51:33.425Z,13.00
2018-09-02T05:54:02.021Z,13.20
2018-09-02T05:56:29.835Z,13.80
2018-09-02T05:58:58.340Z,15.00
2018-09-02T06:01:26.225Z,16.70
2018-09-02T06:03:54.120Z,18.10
2018-09-02T06:06:22.094Z,19.30
2018-09-02T06:08:49.883Z,19.90
2018-09-02T06:11:17.765Z,20.90
2018-09-02T06:13:45.720Z,20.30
2018-09-02T06:16:14.346Z,19.60
2018-09-02T06:18:42.156Z,18.80
2018-09-02T06:21:11.204Z,17.80
2018-09-02T06:23:39.359Z,17.50
2018-09-02T06:26:08.057Z,17.10
2018-09-02T06:28:36.869Z,16.90
2018-09-02T06:31:04.727Z,16.90
2018-09-02T06:33:32.660Z,17.00
2018-09-02T06:36:00.400Z,16.90
2018-09-02T06:38:28.270Z,17.00
2018-09-02T06:40:56.304Z,17.30
2018-09-02T06:43:24.040Z,18.80
2018-09-02T06:45:51.897Z,20.10
2018-09-02T06:48:20.652Z,21.60
2018-09-02T06:50:49.525Z,22.20
2018-09-02T06:53:17.800Z,23.80
2018-09-02T06:55:45.536Z,25.60
2018-09-02T06:58:13.743Z,26.20
2018-09-02T07:00:42.105Z,27.40
2018-09-02T07:03:09.940Z,26.40
2018-09-02T07:05:39.034Z,25.30
2018-09-02T07:08:08.051Z,26.80
2018-09-02T07:10:36.210Z,27.70
2018-09-02T07:13:04.271Z,28.40
2018-09-02T07:15:32.075Z,28.60
2018-09-02T07:18:00.142Z,28.60
2018-09-02T07:20:27.785Z,29.50
2018-09-02T07:22:55.780Z,30.30
2018-09-02T07:25:23.915Z,29.30
2018-09-02T07:27:51.812Z,30.90
2018-09-02T07:30:19.665Z,31.20
2018-09-02T07:32:47.652Z,31.90
2018-09-02T07:35:15.701Z,30.50
2018-09-02T07:37:50.151Z,31.40
2018-09-02T07:40:17.978Z,32.30
2018-09-02T07:42:45.667Z,31.50
2018-09-02T07:45:13.680Z,33.10
2018-09-02T07:47:42.090Z,31.90
2018-09-02T07:50:10.229Z,32.40
2018-09-02T07:52:38.024Z,32.50
2018-09-02T07:55:06.336Z,33.10
2018-09-02T07:57:34.172Z,31.00
2018-09-02T08:00:01.973Z,30.90
2018-09-02T08:02:31.067Z,31.20
2018-09-02T08:04:58.717Z,33.30
2018-09-02T08:07:26.672Z,32.90
2018-09-02T08:09:55.028Z,32.40
2018-09-02T08:12:22.892Z,32.30
2018-09-02T08:14:50.857Z,31.20
2018-09-02T08:17:18.955Z,31.00
2018-09-02T08:19:47.313Z,30.50
2018-09-02T08:22:15.142Z,31.40
2018-09-02T08:24:43.039Z,32.40
2018-09-02T08:27:10.954Z,33.20
2018-09-02T08:29:38.988Z,32.80
2018-09-02T08:32:07.011Z,33.90
2018-09-02T08:34:34.818Z,34.30
2018-09-02T08:37:02.734Z,30.60
2018-09-02T08:39:30.750Z,30.60
2018-09-02T08:41:58.584Z,30.40
2018-09-02T08:44:26.477Z,31.00
2018-09-02T08:46:54.458Z,32.00
2018-09-02T08:49:22.371Z,32.20
2018-09-02T08:51:50.220Z,31.50
2018-09-02T08:54:18.011Z,33.00
2018-09-02T08:56:45.817Z,33.30
2018-09-02T08:59:13.738Z,32.60
2018-09-02T09:01:41.626Z,33.80
2018-09-02T09:04:09.375Z,34.10
2018-09-02T09:06:37.258Z,33.50
2018-09-02T09:09:06.543Z,33.40
2018-09-02T09:11:34.529Z,35.10
2018-09-02T09:14:02.995Z,34.30
2018-09-02T09:16:31.103Z,32.90
2018-09-02T09:18:59.103Z,32.90
2018-09-02T09:21:26.936Z,31.80
2018-09-02T09:23:54.830Z,32.90
2018-09-02T09:26:22.981Z,30.70
2018-09-02T09:28:50.812Z,32.60
2018-09-02T09:31:18.853Z,32.50
2018-09-02T09:33:47.348Z,30.90
2018-09-02T09:36:15.668Z,30.70
2018-09-02T09:38:44.701Z,29.60
2018-09-02T09:41:12.501Z,28.80
2018-09-02T09:43:41.670Z,28.10
2018-09-02T09:46:13.625Z,28.90
2018-09-02T09:48:41.445Z,27.10
2018-09-02T09:51:09.295Z,27.20
2018-09-02T09:53:37.760Z,26.00
2018-09-02T09:56:05.726Z,25.40
2018-09-02T09:58:36.907Z,25.20
2018-09-02T10:01:04.839Z,25.30
2018-09-02T10:03:33.624Z,25.40
2018-09-02T10:06:02.208Z,25.30
2018-09-02T10:08:31.453Z,25.00
2018-09-02T10:11:00.393Z,25.50
2018-09-02T10:13:29.374Z,24.60
2018-09-02T10:15:58.290Z,24.30
2018-09-02T10:18:27.065Z,24.60
2018-09-02T10:20:55.878Z,24.40
2018-09-02T10:23:28.703Z,24.10
2018-09-02T10:25:58.612Z,24.40
2018-09-02T10:28:27.216Z,24.40
2018-09-02T10:31:04.241Z,24.50
2018-09-02T10:33:34.717Z,24.40
2018-09-02T10:36:03.734Z,24.50
2018-09-02T10:38:32.428Z,24.10
2018-09-02T10:41:01.206Z,23.90
2018-09-02T10:43:29.823Z,23.90
2018-09-02T10:46:00.100Z,24.00
2018-09-02T10:48:29.106Z,24.30
2018-09-02T10:50:57.966Z,24.20
2018-09-02T10:53:28.044Z,24.70
2018-09-02T10:55:56.817Z,24.20
2018-09-02T10:58:26.832Z,24.10
2018-09-02T11:01:04.388Z,24.00
2018-09-02T11:03:32.155Z,23.70
2018-09-02T11:05:59.957Z,23.70
2018-09-02T11:08:28.235Z,23.60
2018-09-02T11:11:00.789Z,23.90
2018-09-02T11:13:29.974Z,24.30
2018-09-02T11:15:59.439Z,23.60
2018-09-02T11:18:28.815Z,24.00
2018-09-02T11:20:57.759Z,24.10
2018-09-02T11:23:27.176Z,23.40
2018-09-02T11:25:55.095Z,23.40
2018-09-02T11:28:23.341Z,23.30
2018-09-02T11:30:53.632Z,23.70
2018-09-02T11:33:22.066Z,23.90
2018-09-02T11:35:51.794Z,23.90
2018-09-02T11:38:20.818Z,23.70
2018-09-02T11:40:48.943Z,24.10
2018-09-02T11:43:23.949Z,24.10
2018-09-02T11:45:53.545Z,24.40
2018-09-02T11:48:22.356Z,24.30
2018-09-02T11:50:55.367Z,24.40
2018-09-02T11:53:24.032Z,23.90
2018-09-02T11:55:52.065Z,23.80
2018-09-02T11:58:21.342Z,24.00
2018-09-02T12:00:50.066Z,23.80
2018-09-02T12:03:18.752Z,24.00
2018-09-02T12:05:46.932Z,24.00
2018-09-02T12:08:14.827Z,24.10
2018-09-02T12:10:42.566Z,24.40
2018-09-02T12:13:12.370Z,24.10
2018-09-02T12:15:42.775Z,24.20
2018-09-02T12:18:11.871Z,24.10
2018-09-02T12:20:39.941Z,24.20
2018-09-02T12:23:08.396Z,24.10
2018-09-02T12:25:36.180Z,24.00
2018-09-02T12:28:04.786Z,24.00
2018-09-02T12:30:32.982Z,24.10
2018-09-02T12:33:01.658Z,24.10
2018-09-02T12:35:31.116Z,24.20
2018-09-02T12:37:59.477Z,24.50
2018-09-02T12:40:27.151Z,24.50
2018-09-02T12:42:55.470Z,24.30
2018-09-02T12:45:23.615Z,24.50
2018-09-02T12:47:51.697Z,24.40
2018-09-02T12:50:19.370Z,24.30
2018-09-02T12:52:47.281Z,24.10
2018-09-02T12:55:15.529Z,24.20
2018-09-02T12:57:43.466Z,24.50
2018-09-02T13:00:12.165Z,24.50
2018-09-02T13:02:40.762Z,24.30
2018-09-02T13:05:09.122Z,24.10
2018-09-02T13:07:37.034Z,24.00
2018-09-02T13:10:05.832Z,24.10
2018-09-02T13:12:34.555Z,24.40
2018-09-02T13:15:02.926Z,24.60
2018-09-02T13:17:32.445Z,24.50
2018-09-02T13:20:00.832Z,24.30
2018-09-02T13:22:28.546Z,24.30
2018-09-02T13:24:56.799Z,24.10
2018-09-02T13:27:26.719Z,24.30
2018-09-02T13:29:54.606Z,24.30
2018-09-02T13:32:22.830Z,24.00
2018-09-02T13:34:50.625Z,24.10
2018-09-02T13:37:18.400Z,24.30
2018-09-02T13:39:48.135Z,24.80
2018-09-02T13:42:16.052Z,24.80
2018-09-02T13:44:44.187Z,24.80
2018-09-02T13:47:12.676Z,24.70
2018-09-02T13:49:40.578Z,24.80
2018-09-02T13:52:09.622Z,24.60
2018-09-02T13:54:38.163Z,24.70
2018-09-02T13:57:05.945Z,24.70
2018-09-02T13:59:33.845Z,24.50
2018-09-02T14:02:01.633Z,24.50
2018-09-02T14:04:30.372Z,24.30
2018-09-02T14:06:58.052Z,24.30
2018-09-02T14:09:26.108Z,24.50
2018-09-02T14:11:54.717Z,24.50
2018-09-02T14:14:22.999Z,24.40
2018-09-02T14:16:51.032Z,24.40
2018-09-02T14:19:19.325Z,24.60
2018-09-02T14:21:48.220Z,24.30
2018-09-02T14:24:16.056Z,24.30
2018-09-02T14:26:44.111Z,24.20
2018-09-02T14:29:13.170Z,24.40
2018-09-02T14:31:41.403Z,24.30
2018-09-02T14:34:10.404Z,24.40
2018-09-02T14:36:40.076Z,24.40
2018-09-02T14:39:09.936Z,24.60
2018-09-02T14:41:38.504Z,24.50
2018-09-02T14:44:06.421Z,24.60
2018-09-02T14:46:34.695Z,24.50
2018-09-02T14:49:02.471Z,24.80
2018-09-02T14:51:30.268Z,24.90
2018-09-02T14:53:58.661Z,25.30
2018-09-02T14:56:26.474Z,25.00
2018-09-02T14:58:55.172Z,24.80
2018-09-02T15:01:23.936Z,25.10
2018-09-02T15:03:52.631Z,24.90
2018-09-02T15:06:23.239Z,24.80
2018-09-02T15:08:52.574Z,24.40
2018-09-02T15:11:24.193Z,24.20
2018-09-02T15:13:54.325Z,24.20
2018-09-02T15:16:23.401Z,24.00
2018-09-02T15:18:52.534Z,24.00
2018-09-02T15:21:21.214Z,24.00
2018-09-02T15:23:49.725Z,24.20
2018-09-02T15:26:18.600Z,24.30
2018-09-02T15:28:47.278Z,24.40
2018-09-02T15:31:15.872Z,24.50
2018-09-02T15:33:44.548Z,24.40
2018-09-02T15:36:13.080Z,24.50
2018-09-02T15:38:41.574Z,24.50
2018-09-02T15:41:09.395Z,24.40
2018-09-02T15:43:37.161Z,24.20
2018-09-02T15:46:06.193Z,24.10
2018-09-02T15:48:34.378Z,24.20
2018-09-02T15:51:02.757Z,24.10
2018-09-02T15:53:30.686Z,24.10
2018-09-02T15:55:58.799Z,24.10
2018-09-02T15:58:38.441Z,24.10
2018-09-02T16:01:06.459Z,24.10
2018-09-02T16:03:35.720Z,24.10
2018-09-02T16:06:05.305Z,24.10
2018-09-02T16:08:33.785Z,24.10
2018-09-02T16:11:02.601Z,24.10
2018-09-02T16:13:30.479Z,24.10
2018-09-02T16:15:59.651Z,24.00
2018-09-02T16:18:28.046Z,24.00
2018-09-02T16:20:56.140Z,24.00
2018-09-02T16:23:24.163Z,23.80
2018-09-02T16:25:52.848Z,23.70
2018-09-02T16:28:20.989Z,23.70
2018-09-02T16:30:50.145Z,23.70
2018-09-02T16:33:18.986Z,23.70
2018-09-02T16:35:48.607Z,23.70
2018-09-02T16:38:17.490Z,23.70
2018-09-02T16:40:46.107Z,23.70
2018-09-02T16:43:14.983Z,23.80
2018-09-02T16:45:44.036Z,23.70
2018-09-02T16:48:12.993Z,23.60
2018-09-02T16:50:41.608Z,23.60
2018-09-02T16:53:10.305Z,23.60
2018-09-02T16:55:39.195Z,23.60
2018-09-02T16:58:08.036Z,23.60
2018-09-02T17:00:37.499Z,23.60
2018-09-02T17:03:06.306Z,23.60
2018-09-02T17:05:35.123Z,23.60
2018-09-02T17:08:03.790Z,23.60
2018-09-02T17:10:33.211Z,23.70
2018-09-02T17:13:02.634Z,23.60
2018-09-02T17:15:31.992Z,23.50
2018-09-02T17:18:00.777Z,23.60
2018-09-02T17:20:38.428Z,23.60
2018-09-02T17:23:11.189Z,23.50
2018-09-02T17:25:41.088Z,23.40
2018-09-02T17:28:09.759Z,23.40
2018-09-02T17:30:38.714Z,23.50
2018-09-02T17:33:08.151Z,23.50
2018-09-02T17:35:36.965Z,23.50
2018-09-02T17:38:05.994Z,23.50
2018-09-02T17:40:34.488Z,23.40
2018-09-02T17:43:03.472Z,23.30
2018-09-02T17:45:32.228Z,23.30
2018-09-02T17:48:01.108Z,23.20
2018-09-02T17:50:29.808Z,23.10
2018-09-02T17:52:59.113Z,23.10
2018-09-02T17:55:27.889Z,23.10
2018-09-02T17:57:56.706Z,23.10
2018-09-02T18:00:29.364Z,23.00
2018-09-02T18:02:58.382Z,23.00
2018-09-02T18:05:27.110Z,22.90
2018-09-02T18:07:56.506Z,22.80
2018-09-02T18:10:25.182Z,22.80
2018-09-02T18:12:54.141Z,22.70
2018-09-02T18:15:24.744Z,22.60
2018-09-02T18:17:53.420Z,22.50
2018-09-02T18:20:22.088Z,22.40
2018-09-02T18:22:51.166Z,22.30
2018-09-02T18:25:19.894Z,22.30
2018-09-02T18:27:52.510Z,22.20
2018-09-02T18:30:21.324Z,22.20
2018-09-02T18:32:49.380Z,22.20
2018-09-02T18:35:18.390Z,22.10
2018-09-02T18:37:47.462Z,22.10
2018-09-02T18:40:17.069Z,22.00
2018-09-02T18:42:45.822Z,22.00
2018-09-02T18:45:15.085Z,22.00
2018-09-02T18:47:43.753Z,21.90
2018-09-02T18:50:12.449Z,21.90
2018-09-02T18:52:42.030Z,21.90
2018-09-02T18:55:10.720Z,21.90
2018-09-02T18:57:39.595Z,21.80
2018-09-02T19:00:08.371Z,21.80
2018-09-02T19:02:39.293Z,21.80
2018-09-02T19:05:09.517Z,21.70
2018-09-02T19:07:38.236Z,21.70
2018-09-02T19:10:07.273Z,21.70
2018-09-02T19:12:37.427Z,21.60
2018-09-02T19:15:06.544Z,21.60
2018-09-02T19:17:35.275Z,21.60
2018-09-02T19:20:04.015Z,21.60
2018-09-02T19:22:33.277Z,21.50
2018-09-02T19:25:02.080Z,21.50
2018-09-02T19:27:31.393Z,21.50
2018-09-02T19:30:07.018Z,21.40
2018-09-02T19:32:35.713Z,21.40
2018-09-02T19:35:05.887Z,21.30
2018-09-02T19:37:34.743Z,21.30
2018-09-02T19:40:03.878Z,21.30
2018-09-02T19:42:36.285Z,21.30
2018-09-02T19:45:05.289Z,21.30
2018-09-02T19:47:34.145Z,21.30
2018-09-02T19:50:02.719Z,21.20
2018-09-02T19:52:31.495Z,21.20
2018-09-02T19:55:00.851Z,21.10
2018-09-02T19:57:29.546Z,21.10
2018-09-02T19:59:58.182Z,21.10
2018-09-02T20:02:27.498Z,21.00
2018-09-02T20:05:07.512Z,21.00
2018-09-02T20:07:37.100Z,21.00
2018-09-02T20:10:07.335Z,20.90
2018-09-02T20:12:36.479Z,20.90
2018-09-02T20:15:05.497Z,20.80
2018-09-02T20:17:34.103Z,20.80
2018-09-02T20:20:03.185Z,20.80
2018-09-02T20:22:31.902Z,20.70
2018-09-02T20:25:01.384Z,20.70
2018-09-02T20:27:30.972Z,20.60
2018-09-02T20:29:59.997Z,20.70
2018-09-02T20:32:29.803Z,20.60
2018-09-02T20:34:58.416Z,20.60
2018-09-02T20:37:27.835Z,20.60
2018-09-02T20:39:56.589Z,20.50
2018-09-02T20:42:28.433Z,20.50
2018-09-02T20:44:58.400Z,20.50
2018-09-02T20:47:27.342Z,20.40
2018-09-02T20:49:58.360Z,20.40
2018-09-02T20:52:27.067Z,20.40
2018-09-02T20:54:55.722Z,20.40
2018-09-02T20:57:24.480Z,20.40
2018-09-02T20:59:53.352Z,20.40
2018-09-02T21:02:22.038Z,20.30
2018-09-02T21:04:50.765Z,20.40
2018-09-02T21:07:19.439Z,20.40
2018-09-02T21:09:48.176Z,20.30
2018-09-02T21:12:16.850Z,20.30
2018-09-02T21:14:45.526Z,20.40
2018-09-02T21:17:14.282Z,20.30
2018-09-02T21:19:42.956Z,20.30
2018-09-02T21:22:11.732Z,20.20
2018-09-02T21:24:40.368Z,20.20
2018-09-02T21:27:09.023Z,20.30
2018-09-02T21:29:37.718Z,20.30
2018-09-02T21:32:06.721Z,20.20
2018-09-02T21:34:35.550Z,20.20
2018-09-02T21:37:04.353Z,20.20
2018-09-02T21:39:33.020Z,20.10
2018-09-02T21:42:01.745Z,20.10
2018-09-02T21:44:30.472Z,20.10
2018-09-02T21:46:59.127Z,20.10
2018-09-02T21:49:27.891Z,20.10
2018-09-02T21:51:56.589Z,20.10
2018-09-02T21:54:25.271Z,20.00
2018-09-02T21:56:54.029Z,20.00
2018-09-02T21:59:22.665Z,20.00
2018-09-02T22:01:51.300Z,20.00
2018-09-02T22:04:20.084Z,20.00
2018-09-02T22:06:48.730Z,19.90
2018-09-02T22:09:18.007Z,19.90
2018-09-02T22:11:46.665Z,19.90
2018-09-02T22:14:15.338Z,19.90
2018-09-02T22:16:44.573Z,19.90
2018-09-02T22:19:13.472Z,19.90
2018-09-02T22:21:42.485Z,19.90
2018-09-02T22:24:11.159Z,19.90
2018-09-02T22:26:39.910Z,19.90
2018-09-02T22:29:08.551Z,19.90
2018-09-02T22:31:37.347Z,19.80
2018-09-02T22:34:05.982Z,19.80
2018-09-02T22:36:34.677Z,19.80
2018-09-02T22:39:04.352Z,19.80
2018-09-02T22:41:32.948Z,19.80
2018-09-02T22:44:01.580Z,19.80
2018-09-02T22:46:30.260Z,19.70
2018-09-02T22:48:58.955Z,19.70
2018-09-02T22:51:27.610Z,19.60
2018-09-02T22:53:56.305Z,19.60
2018-09-02T22:56:25.020Z,19.60
2018-09-02T22:58:53.910Z,19.60
2018-09-02T23:01:22.529Z,19.60
2018-09-02T23:03:51.127Z,19.60
2018-09-02T23:06:19.763Z,19.50
2018-09-02T23:08:48.415Z,19.50
2018-09-02T23:11:16.974Z,19.50
2018-09-02T23:13:45.669Z,19.50
2018-09-02T23:16:14.344Z,19.40
2018-09-02T23:18:42.940Z,19.40
2018-09-02T23:21:11.594Z,19.40
2018-09-02T23:23:40.271Z,19.40
2018-09-02T23:26:08.927Z,19.40
2018-09-02T23:28:37.625Z,19.40
2018-09-02T23:31:06.286Z,19.40
2018-09-02T23:33:34.881Z,19.40
2018-09-02T23:36:03.430Z,19.30
2018-09-02T23:38:32.168Z,19.30
2018-09-02T23:41:00.839Z,19.30
2018-09-02T23:43:29.595Z,19.30
2018-09-02T23:45:58.170Z,19.30
2018-09-02T23:48:26.802Z,19.30
2018-09-02T23:50:55.324Z,19.30
2018-09-02T23:53:23.797Z,19.30
2018-09-02T23:55:52.393Z,19.30
2018-09-02T23:58:21.029Z,19.20
